Terminal Aerodrome Forecast
Issued by NWS

Home | Current Version | Previous Version | Text Only | Print | Product List | Glossary On
Versions: 1 2 3 4 5 6 7 8 9 10 11 12 13 14 15
177
FTUS46 KSGX 071736
TAFONT
TAF
KONT 071736Z 0718/0824 VRB05KT 6SM HZ FEW025 SCT035 BKN200
     FM072000 VRB05KT P6SM FEW150 FEW250=

USA.gov is the U.S. government's official web portal to all federal, state and local government web resources and services.